Bay, Arkansas
Current Conditions -  °F | °C
As of 9:53 AM on Thursday 30 Oct 2014 (Local Time) from KJBR Reporting Station
Clear Clear  
Wind Chill: 53°   Ceiling: Unl
Heat Index: 53°   Visibility: 10mi
Dew Point: 43°   Wind: 3mph
Humidity: 69%   Direction: 140°SE
Pressure: 30.17"   Gusts: NA
Location:  35.74°N, 90.56°W
Report Text: KJBR 301453Z AUTO 14003KT 10SM CLR 12/06 A3017 RMK AO2 SLP216 T01170061 53002
Loading
Personal Weather Stations






























Interactive Weather Map
Tropical Storm Tracking
New forecast layout! Learn more

10-Day Weather Forecast

Advertisements
Track Severe Weather on mobile